Time;durP1;ratioP1;P1;durP2;ratioP2;P2;SDS_P1;SDS_P2;PMS_P1;PMS_P2;Temp;Humidity;BMP_temperature;BMP_pressure;BME280_temperature;BME280_humidity;BME280_pressure;Samples;Min_cycle;Max_cycle;Signal;HPM_P1;HPM_P2
2022/12/20 00:00:34;;;;;;;7.00;2.80;;;9.60;99.90;;;;;;4198702;28;20048;-85
2022/12/20 00:02:35;;;;;;;7.28;3.50;;;9.60;99.90;;;;;;4199528;28;20135;-86
2022/12/20 00:04:37;;;;;;;4.80;2.92;;;9.50;99.90;;;;;;4199136;28;20040;-86
2022/12/20 00:06:38;;;;;;;4.70;2.70;;;9.50;99.90;;;;;;4199433;28;20496;-86
2022/12/20 00:08:39;;;;;;;6.53;2.55;;;9.60;99.90;;;;;;4185106;28;20056;-85
2022/12/20 00:10:42;;;;;;;10.85;2.97;;;9.50;99.90;;;;;;4197998;28;20547;-85
2022/12/20 00:12:43;;;;;;;6.80;2.90;;;9.50;99.90;;;;;;4215261;28;20480;-85
2022/12/20 00:14:44;;;;;;;9.88;4.38;;;9.50;99.90;;;;;;4197762;28;20060;-84
2022/12/20 00:16:45;;;;;;;7.50;2.60;;;9.60;99.90;;;;;;4214695;28;20048;-85
2022/12/20 00:18:46;;;;;;;6.22;2.80;;;9.50;99.90;;;;;;4215838;28;20048;-85
2022/12/20 00:20:47;;;;;;;5.53;2.60;;;9.50;99.90;;;;;;4214415;28;20508;-85
2022/12/20 00:22:48;;;;;;;5.85;2.70;;;9.60;99.90;;;;;;4196682;28;20048;-85
2022/12/20 00:24:49;;;;;;;7.35;3.38;;;9.50;99.90;;;;;;4197262;28;20512;-85
2022/12/20 00:26:50;;;;;;;7.15;2.80;;;9.50;99.90;;;;;;4206744;28;20040;-85
2022/12/20 00:28:51;;;;;;;4.60;2.47;;;9.50;99.90;;;;;;4197427;28;20145;-85
2022/12/20 00:30:55;;;;;;;5.72;2.95;;;9.50;99.90;;;;;;4197247;28;20092;-85
2022/12/20 00:32:55;;;;;;;3.58;2.10;;;9.40;99.90;;;;;;4197118;28;20053;-85
2022/12/20 00:34:56;;;;;;;7.88;2.60;;;9.50;99.90;;;;;;4198243;28;20047;-85
2022/12/20 00:36:58;;;;;;;7.45;3.15;;;9.50;99.90;;;;;;4197505;28;20453;-85
2022/12/20 00:38:59;;;;;;;3.30;2.33;;;9.50;99.90;;;;;;4197702;28;20531;-85
2022/12/20 00:41:02;;;;;;;7.15;2.40;;;8.40;99.90;;;;;;4198532;28;20044;-85
2022/12/20 00:43:03;;;;;;;4.60;2.45;;;9.50;99.90;;;;;;4203710;28;20055;-86
2022/12/20 00:45:04;;;;;;;5.30;2.20;;;9.50;99.90;;;;;;4215334;28;20047;-85
2022/12/20 00:47:06;;;;;;;6.03;2.30;;;9.60;99.90;;;;;;4213523;28;20178;-85
2022/12/20 00:49:07;;;;;;;3.88;2.50;;;9.60;99.90;;;;;;4215235;28;20040;-85
2022/12/20 00:51:10;;;;;;;3.95;2.22;;;9.50;99.90;;;;;;4213622;28;20040;-85
2022/12/20 00:53:11;;;;;;;6.53;2.17;;;9.60;99.90;;;;;;4213811;28;20048;-84
2022/12/20 00:55:11;;;;;;;7.47;2.67;;;9.60;99.90;;;;;;4213945;28;20089;-86
2022/12/20 00:57:12;;;;;;;6.97;2.47;;;9.50;99.90;;;;;;4214049;28;20093;-86
2022/12/20 00:59:13;;;;;;;8.52;2.72;;;9.50;99.90;;;;;;4205248;28;20048;-86
2022/12/20 01:01:25;;;;;;;6.22;2.30;;;9.50;99.90;;;;;;4196020;28;20045;-86
2022/12/20 01:03:26;;;;;;;9.57;2.80;;;9.50;99.90;;;;;;4198272;28;20045;-86
2022/12/20 01:05:26;;;;;;;7.35;2.15;;;9.50;99.90;;;;;;4196496;28;20138;-85
2022/12/20 01:07:28;;;;;;;6.95;2.28;;;9.50;99.90;;;;;;4196872;28;20536;-85
2022/12/20 01:09:30;;;;;;;5.22;2.90;;;9.50;99.90;;;;;;4196822;28;20052;-85
2022/12/20 01:11:32;;;;;;;4.65;2.45;;;9.50;99.90;;;;;;4197097;28;20110;-85
2022/12/20 01:13:35;;;;;;;4.72;2.15;;;9.50;99.90;;;;;;4197380;28;20119;-84
2022/12/20 01:15:36;;;;;;;4.95;1.92;;;9.60;99.90;;;;;;4205250;28;20036;-85
2022/12/20 01:17:37;;;;;;;3.17;1.90;;;9.50;99.90;;;;;;4197309;28;20037;-85
2022/12/20 01:19:39;;;;;;;7.00;2.88;;;9.50;99.90;;;;;;4197010;28;20101;-86
2022/12/20 01:21:43;;;;;;;7.00;2.28;;;8.40;99.90;;;;;;4214078;28;20048;-85
2022/12/20 01:23:46;;;;;;;4.78;2.15;;;9.60;99.90;;;;;;4214877;28;20070;-85
2022/12/20 01:25:50;;;;;;;7.10;2.40;;;9.60;99.90;;;;;;4215991;28;20048;-85
2022/12/20 01:27:51;;;;;;;3.65;2.10;;;9.50;99.90;;;;;;4215289;28;20431;-85
2022/12/20 01:29:52;;;;;;;5.75;2.72;;;9.60;99.90;;;;;;4214723;28;20036;-85
2022/12/20 01:31:53;;;;;;;3.55;2.20;;;9.60;99.90;;;;;;4210736;28;20054;-84
2022/12/20 01:33:54;;;;;;;4.75;2.10;;;9.60;99.90;;;;;;4210246;28;20461;-85
2022/12/20 01:36:00;;;;;;;4.85;2.17;;;9.70;99.90;;;;;;4196939;28;20084;-87
2022/12/20 01:38:00;;;;;;;5.80;2.28;;;9.60;99.90;;;;;;4213311;28;20055;-85
2022/12/20 01:40:01;;;;;;;7.88;3.05;;;9.70;99.90;;;;;;4213198;28;20090;-85
2022/12/20 01:42:02;;;;;;;5.68;1.95;;;9.70;99.90;;;;;;4213425;28;20105;-85
2022/12/20 01:44:16;;;;;;;4.40;1.90;;;9.70;99.90;;;;;;4213158;28;20036;-85
2022/12/20 01:46:20;;;;;;;4.35;2.33;;;9.60;99.90;;;;;;4214560;28;20097;-85
2022/12/20 01:48:25;;;;;;;3.83;1.90;;;9.60;99.90;;;;;;4214838;28;20507;-86
2022/12/20 01:50:25;;;;;;;3.97;2.10;;;9.70;99.90;;;;;;4211956;28;20056;-85
2022/12/20 01:52:38;;;;;;;4.97;2.05;;;9.60;99.90;;;;;;4196742;28;20076;-85
2022/12/20 01:54:47;;;;;;;5.78;2.38;;;9.60;99.90;;;;;;4213166;28;20126;-86
2022/12/20 01:56:55;;;;;;;6.57;2.63;;;9.60;99.90;;;;;;4213218;28;20048;-85
2022/12/20 01:58:56;;;;;;;5.15;2.20;;;9.60;99.90;;;;;;4213480;28;20052;-85
2022/12/20 02:00:57;;;;;;;5.13;2.38;;;9.70;99.90;;;;;;4214282;28;20044;-86
2022/12/20 02:03:02;;;;;;;5.95;2.03;;;9.60;99.90;;;;;;4195667;28;20075;-86
2022/12/20 02:05:03;;;;;;;6.50;1.88;;;9.60;99.90;;;;;;4213220;28;20536;-85
2022/12/20 02:07:06;;;;;;;4.65;2.00;;;9.60;99.90;;;;;;4212791;28;20185;-85
2022/12/20 02:09:08;;;;;;;3.80;1.85;;;9.60;99.90;;;;;;4196442;28;20052;-85
2022/12/20 02:11:23;;;;;;;5.45;2.50;;;9.60;99.90;;;;;;4214575;28;20046;-85
2022/12/20 02:13:55;;;;;;;6.78;2.00;;;9.50;99.90;;;;;;4215709;28;20055;-85
2022/12/20 02:15:57;;;;;;;5.97;2.40;;;9.40;99.90;;;;;;4218045;28;20097;-85
2022/12/20 02:18:16;;;;;;;3.50;1.75;;;9.60;99.90;;;;;;4218084;28;20048;-86
2022/12/20 02:20:41;;;;;;;4.47;2.22;;;9.60;99.90;;;;;;4216619;28;20052;-86
2022/12/20 02:23:06;;;;;;;4.38;2.08;;;9.50;99.90;;;;;;4215693;28;20052;-85
2022/12/20 02:25:37;;;;;;;3.15;1.80;;;9.50;99.90;;;;;;4199414;28;20909;-85
2022/12/20 02:27:48;;;;;;;2.53;1.98;;;9.60;99.90;;;;;;4202366;28;20535;-85
2022/12/20 02:30:03;;;;;;;6.68;2.40;;;9.60;99.90;;;;;;4201333;28;20547;-85
2022/12/20 02:32:23;;;;;;;5.97;2.08;;;9.60;99.90;;;;;;4201132;28;20605;-85
2022/12/20 02:34:27;;;;;;;3.33;2.05;;;9.60;99.90;;;;;;4199690;28;20446;-85
2022/12/20 02:36:27;;;;;;;6.57;2.05;;;9.60;99.90;;;;;;4199661;28;20553;-84
2022/12/20 02:38:34;;;;;;;4.90;2.15;;;9.60;99.90;;;;;;4199752;28;20056;-85
2022/12/20 02:40:40;;;;;;;3.28;2.08;;;9.60;99.90;;;;;;4200663;28;20048;-85
2022/12/20 02:42:42;;;;;;;4.03;1.90;;;9.60;99.90;;;;;;4216635;28;20048;-85
2022/12/20 02:45:14;;;;;;;6.95;2.38;;;9.60;99.90;;;;;;4216566;28;20066;-85
2022/12/20 02:47:25;;;;;;;6.28;1.80;;;9.50;99.90;;;;;;4214158;28;20084;-85
2022/12/20 02:49:31;;;;;;;5.75;1.98;;;9.60;99.90;;;;;;4216434;28;20467;-86
2022/12/20 02:51:33;;;;;;;3.50;2.08;;;9.70;99.90;;;;;;4215390;28;20048;-86
2022/12/20 02:53:35;;;;;;;5.97;2.38;;;9.60;99.90;;;;;;4215760;28;20079;-85
2022/12/20 02:55:48;;;;;;;4.63;2.03;;;9.70;99.90;;;;;;4215413;28;20047;-85
2022/12/20 02:58:04;;;;;;;3.35;2.00;;;9.60;99.90;;;;;;4215278;28;20044;-85
2022/12/20 03:00:09;;;;;;;4.03;2.05;;;9.60;99.90;;;;;;4199079;28;20052;-86
2022/12/20 03:02:11;;;;;;;4.85;2.28;;;9.60;99.90;;;;;;4199685;28;20497;-86
2022/12/20 03:04:15;;;;;;;4.47;1.98;;;9.90;99.90;;;;;;4199796;28;20036;-86
2022/12/20 03:06:17;;;;;;;4.13;2.17;;;9.60;99.90;;;;;;4198709;28;20486;-86
2022/12/20 03:08:20;;;;;;;8.88;1.90;;;9.60;99.90;;;;;;4199841;28;20166;-86
2022/12/20 03:10:21;;;;;;;4.95;2.13;;;9.60;99.90;;;;;;4198620;28;20876;-85
2022/12/20 03:12:21;;;;;;;3.63;2.03;;;9.60;99.90;;;;;;4198358;28;20152;-85
2022/12/20 03:14:23;;;;;;;4.47;1.85;;;9.60;99.90;;;;;;4199589;28;20531;-85
2022/12/20 03:16:24;;;;;;;5.63;2.25;;;9.50;99.90;;;;;;4215003;28;20211;-85
2022/12/20 03:18:24;;;;;;;6.07;2.75;;;9.50;99.90;;;;;;4215065;28;20044;-84
2022/12/20 03:20:25;;;;;;;3.90;2.00;;;9.50;99.90;;;;;;4214986;28;20441;-84
2022/12/20 03:22:26;;;;;;;3.75;2.15;;;9.50;99.90;;;;;;4215323;28;20044;-85
2022/12/20 03:24:27;;;;;;;6.72;2.25;;;9.50;99.90;;;;;;4214794;28;20040;-85
2022/12/20 03:26:27;;;;;;;6.57;2.33;;;9.40;99.90;;;;;;4198850;28;20081;-84
2022/12/20 03:28:28;;;;;;;5.00;1.92;;;9.40;99.90;;;;;;4215990;28;20049;-85
2022/12/20 03:30:29;;;;;;;3.60;2.17;;;10.00;99.90;;;;;;4215887;28;20052;-85
2022/12/20 03:32:30;;;;;;;4.47;2.13;;;9.60;99.90;;;;;;4198515;28;20406;-85
2022/12/20 03:34:32;;;;;;;3.70;2.30;;;9.40;99.90;;;;;;4216382;28;20050;-84
2022/12/20 03:36:33;;;;;;;5.20;2.38;;;9.40;99.90;;;;;;4215232;28;20040;-85
2022/12/20 03:38:34;;;;;;;4.53;2.38;;;9.50;99.90;;;;;;4215276;28;20119;-85
2022/12/20 03:40:34;;;;;;;5.97;2.50;;;9.40;99.90;;;;;;4215032;28;20190;-85
2022/12/20 03:42:36;;;;;;;5.32;2.40;;;9.40;99.90;;;;;;4214897;28;20052;-85
2022/12/20 03:44:36;;;;;;;5.05;2.30;;;9.40;99.90;;;;;;4212460;28;20044;-84
2022/12/20 03:46:37;;;;;;;7.22;2.15;;;9.40;99.90;;;;;;4181077;28;20055;-85
2022/12/20 03:48:38;;;;;;;5.43;2.50;;;9.40;99.90;;;;;;4199598;28;20037;-85
2022/12/20 03:50:38;;;;;;;5.53;2.17;;;9.50;99.90;;;;;;4198147;28;20489;-85
2022/12/20 03:52:39;;;;;;;4.93;2.20;;;9.50;99.90;;;;;;4199475;28;20489;-85
2022/12/20 03:54:40;;;;;;;5.28;2.83;;;9.50;99.90;;;;;;4197286;28;20230;-85
2022/12/20 03:56:41;;;;;;;4.72;2.83;;;9.50;99.90;;;;;;4199084;28;20078;-85
2022/12/20 03:58:41;;;;;;;4.25;1.92;;;10.00;99.90;;;;;;4198063;28;20411;-85
2022/12/20 04:00:42;;;;;;;3.00;1.85;;;9.50;99.90;;;;;;4181781;28;20122;-85
2022/12/20 04:02:43;;;;;;;3.60;2.10;;;9.50;99.90;;;;;;4214322;28;20044;-85
2022/12/20 04:04:43;;;;;;;3.17;2.20;;;9.40;99.90;;;;;;4214194;28;20040;-85
2022/12/20 04:06:45;;;;;;;7.28;2.50;;;9.50;99.90;;;;;;4216173;28;20040;-85
2022/12/20 04:08:46;;;;;;;4.50;2.42;;;9.50;99.90;;;;;;4214291;28;20127;-85
2022/12/20 04:13:06;;;;;;;5.10;1.80;;;9.50;99.90;;;;;;4215304;28;20055;-85
2022/12/20 04:15:08;;;;;;;5.93;2.30;;;9.50;99.90;;;;;;4214055;28;20078;-85
2022/12/20 04:17:09;;;;;;;6.03;3.45;;;9.50;99.90;;;;;;4214628;28;20040;-85
2022/12/20 04:19:10;;;;;;;4.10;2.08;;;9.50;99.90;;;;;;4200515;28;20178;-86
2022/12/20 04:21:13;;;;;;;6.70;2.28;;;9.50;99.90;;;;;;4198720;28;20047;-84
2022/12/20 04:23:13;;;;;;;3.85;1.90;;;9.50;99.90;;;;;;4197075;28;20048;-85
2022/12/20 04:25:16;;;;;;;5.38;2.20;;;9.80;99.90;;;;;;4199067;28;20079;-84
2022/12/20 04:27:18;;;;;;;4.93;2.35;;;9.50;99.90;;;;;;4197648;28;20052;-85
2022/12/20 04:29:19;;;;;;;4.07;2.03;;;9.50;99.90;;;;;;4197456;28;20044;-85
2022/12/20 04:31:19;;;;;;;5.45;2.13;;;9.50;99.90;;;;;;4197569;28;20055;-85
2022/12/20 04:33:21;;;;;;;6.43;2.33;;;9.50;99.90;;;;;;4197402;28;20059;-85
2022/12/20 04:35:21;;;;;;;4.45;2.15;;;9.60;99.90;;;;;;4180101;28;20124;-85
2022/12/20 04:37:23;;;;;;;6.95;2.63;;;9.60;99.90;;;;;;4212007;28;20036;-85
2022/12/20 04:39:24;;;;;;;6.13;2.20;;;9.60;99.90;;;;;;4214066;28;20117;-85
2022/12/20 04:41:25;;;;;;;4.30;2.00;;;9.60;99.90;;;;;;4197002;28;20057;-85
2022/12/20 04:43:26;;;;;;;4.38;2.38;;;9.90;99.90;;;;;;4215381;28;20048;-85
2022/12/20 04:45:27;;;;;;;7.57;2.40;;;9.70;99.90;;;;;;4213647;28;20135;-85
2022/12/20 04:47:28;;;;;;;3.13;2.08;;;9.70;99.90;;;;;;4213657;28;20056;-84
2022/12/20 04:49:28;;;;;;;8.55;2.40;;;10.10;99.90;;;;;;4214797;28;20392;-86
2022/12/20 04:51:29;;;;;;;4.47;2.42;;;10.30;99.90;;;;;;4214853;28;20068;-84
2022/12/20 04:53:48;;;;;;;3.80;2.00;;;10.00;99.90;;;;;;4210209;28;20045;-85
2022/12/20 04:55:49;;;;;;;;;;;9.70;99.90;;;;;;4180970;28;20053;-85
2022/12/20 04:57:50;;;;;;;7.22;2.53;;;9.70;99.90;;;;;;4213160;28;20312;-85
2022/12/20 04:59:51;;;;;;;5.35;2.38;;;9.70;99.90;;;;;;4197244;28;20055;-85
2022/12/20 05:01:52;;;;;;;3.75;2.22;;;9.80;99.90;;;;;;4213482;28;20412;-85
2022/12/20 05:03:54;;;;;;;8.60;3.15;;;9.70;99.90;;;;;;4215570;28;20095;-85
2022/12/20 05:05:54;;;;;;;5.50;3.50;;;9.70;99.90;;;;;;4215438;28;20040;-85
2022/12/20 05:07:55;;;;;;;4.05;2.45;;;9.70;99.90;;;;;;4214844;28;20457;-85
2022/12/20 05:09:57;;;;;;;4.70;2.30;;;10.10;99.90;;;;;;4213293;28;20055;-84
2022/12/20 05:11:58;;;;;;;4.78;2.33;;;9.80;99.90;;;;;;4213154;28;20865;-84
2022/12/20 05:13:58;;;;;;;5.50;2.25;;;9.80;99.90;;;;;;4196359;28;20072;-85
2022/12/20 05:15:59;;;;;;;3.80;2.20;;;10.10;99.90;;;;;;4214677;28;20051;-85
2022/12/20 05:18:00;;;;;;;8.55;3.13;;;9.80;99.90;;;;;;4214661;28;20040;-85
2022/12/20 05:20:03;;;;;;;5.55;2.30;;;9.90;99.90;;;;;;4196672;28;20045;-85
2022/12/20 05:26:43;;;;;;;7.72;2.53;;;9.90;99.90;;;;;;4200831;28;20285;-84
2022/12/20 05:28:46;;;;;;;6.10;2.55;;;8.50;99.90;;;;;;4199165;28;20048;-85
2022/12/20 05:30:46;;;;;;;5.28;2.20;;;10.40;99.90;;;;;;4180623;28;20413;-85
2022/12/20 05:32:47;;;;;;;7.00;2.28;;;10.00;99.90;;;;;;4196801;28;20112;-85
2022/12/20 05:34:51;;;;;;;2.15;1.55;;;9.90;99.90;;;;;;4197443;28;20040;-85
2022/12/20 05:36:52;;;;;;;6.85;1.90;;;10.20;99.90;;;;;;4196919;28;20127;-85
2022/12/20 05:38:53;;;;;;;2.40;1.60;;;10.00;99.90;;;;;;4198235;28;20045;-85
2022/12/20 05:40:55;;;;;;;5.32;2.00;;;10.00;99.90;;;;;;4197884;28;20516;-85
2022/12/20 05:42:55;;;;;;;8.80;2.60;;;10.40;99.90;;;;;;4196108;28;20044;-85
2022/12/20 05:44:57;;;;;;;5.28;2.45;;;10.30;99.90;;;;;;4197271;28;20524;-85
2022/12/20 05:46:59;;;;;;;8.65;2.42;;;10.00;99.90;;;;;;4207508;28;20566;-85
2022/12/20 05:48:59;;;;;;;4.50;2.05;;;10.00;99.90;;;;;;4213058;28;20059;-85
2022/12/20 05:51:00;;;;;;;4.60;1.92;;;10.00;99.90;;;;;;4214248;28;20044;-85
2022/12/20 05:53:01;;;;;;;4.05;2.10;;;10.10;99.90;;;;;;4214324;28;20044;-85
2022/12/20 05:55:02;;;;;;;5.78;2.35;;;10.10;99.90;;;;;;4200241;28;20041;-85
2022/12/20 05:57:03;;;;;;;5.40;2.47;;;10.10;99.90;;;;;;4212566;28;20054;-85
2022/12/20 05:59:05;;;;;;;5.70;2.15;;;10.10;99.90;;;;;;4213283;28;20127;-85
2022/12/20 06:01:08;;;;;;;7.22;2.53;;;10.10;99.90;;;;;;4209473;28;20029;-85
2022/12/20 06:03:10;;;;;;;4.55;2.00;;;10.10;99.90;;;;;;4198423;28;20117;-85
2022/12/20 06:05:11;;;;;;;3.40;1.95;;;10.10;99.90;;;;;;4210637;28;20121;-84
2022/12/20 06:07:12;;;;;;;5.32;2.55;;;10.10;99.90;;;;;;4214123;28;20051;-85
2022/12/20 06:09:13;;;;;;;3.95;2.22;;;10.20;99.90;;;;;;4214181;28;20040;-85
2022/12/20 06:11:14;;;;;;;3.17;2.10;;;10.20;99.90;;;;;;4196570;28;20059;-85
2022/12/20 06:13:15;;;;;;;8.13;2.45;;;10.20;99.90;;;;;;4212525;28;20095;-85
2022/12/20 06:15:16;;;;;;;3.97;2.03;;;10.20;99.90;;;;;;4212833;28;20056;-85
2022/12/20 06:17:17;;;;;;;5.60;2.50;;;10.20;99.90;;;;;;4214248;28;20036;-85
2022/12/20 06:19:19;;;;;;;5.45;2.50;;;10.30;99.90;;;;;;4211231;28;20040;-85
2022/12/20 06:21:20;;;;;;;3.05;1.95;;;10.20;99.90;;;;;;4214158;28;20156;-84
2022/12/20 06:23:20;;;;;;;4.00;2.50;;;10.20;99.90;;;;;;4212169;28;20056;-85
2022/12/20 06:25:21;;;;;;;3.72;2.17;;;10.20;99.90;;;;;;4214027;28;20047;-85
2022/12/20 06:27:22;;;;;;;4.20;1.70;;;10.20;99.90;;;;;;4212633;28;20432;-86
2022/12/20 06:29:23;;;;;;;2.90;2.00;;;10.20;99.90;;;;;;4212309;28;20539;-86
2022/12/20 06:31:25;;;;;;;3.88;2.25;;;10.30;99.90;;;;;;4212744;28;20131;-85
2022/12/20 06:33:25;;;;;;;2.40;1.70;;;10.30;99.90;;;;;;4213455;28;20096;-85
2022/12/20 06:35:26;;;;;;;5.43;2.20;;;10.30;99.90;;;;;;4212560;28;20036;-85
2022/12/20 06:37:27;;;;;;;4.70;2.28;;;10.30;99.90;;;;;;4179133;28;20056;-84
2022/12/20 06:39:27;;;;;;;4.40;1.88;;;10.30;99.90;;;;;;4196821;28;20128;-84
2022/12/20 06:41:28;;;;;;;8.05;2.10;;;10.30;99.90;;;;;;4196875;28;20048;-88
2022/12/20 06:43:30;;;;;;;3.90;1.95;;;10.30;99.90;;;;;;4196953;28;20036;-86
2022/12/20 06:45:31;;;;;;;3.55;1.92;;;10.30;99.90;;;;;;4198022;28;20466;-84
2022/12/20 06:47:31;;;;;;;5.43;2.25;;;10.30;99.90;;;;;;4212188;28;20105;-85
2022/12/20 06:49:33;;;;;;;6.28;2.42;;;10.30;99.90;;;;;;4213981;28;20071;-86
2022/12/20 06:51:35;;;;;;;3.10;1.70;;;10.40;99.90;;;;;;4212984;28;20048;-85
2022/12/20 06:53:36;;;;;;;5.05;2.67;;;10.40;99.90;;;;;;4214273;28;20055;-85
2022/12/20 06:55:38;;;;;;;3.42;1.88;;;10.40;99.90;;;;;;4212819;28;20048;-86
2022/12/20 06:57:39;;;;;;;4.22;1.70;;;10.40;99.90;;;;;;4195720;28;20481;-85
2022/12/20 06:59:39;;;;;;;2.03;1.35;;;10.40;99.90;;;;;;4198066;28;20121;-85
2022/12/20 07:01:40;;;;;;;6.32;2.30;;;10.40;99.90;;;;;;4203350;28;20131;-86
2022/12/20 07:03:41;;;;;;;4.25;2.40;;;10.40;99.90;;;;;;4199757;28;20059;-86
2022/12/20 07:05:42;;;;;;;4.72;2.22;;;10.40;99.90;;;;;;4198490;28;20055;-86
2022/12/20 07:07:43;;;;;;;4.40;1.83;;;10.40;99.90;;;;;;4198348;28;20052;-84
2022/12/20 07:09:43;;;;;;;5.65;2.25;;;10.40;99.90;;;;;;4198015;28;20040;-85
2022/12/20 07:11:44;;;;;;;4.00;1.95;;;10.40;99.90;;;;;;4199722;28;20094;-86
2022/12/20 07:13:45;;;;;;;8.30;2.25;;;10.40;99.90;;;;;;4199076;28;20509;-86
2022/12/20 07:15:47;;;;;;;5.70;2.20;;;10.40;99.90;;;;;;4206941;28;20077;-86
2022/12/20 07:17:47;;;;;;;5.10;2.38;;;10.40;99.90;;;;;;4214907;28;20044;-86
2022/12/20 07:19:49;;;;;;;5.63;2.40;;;10.40;99.90;;;;;;4216485;28;20055;-85
2022/12/20 07:21:50;;;;;;;5.38;2.70;;;10.30;99.90;;;;;;4216029;28;20055;-86
2022/12/20 07:23:51;;;;;;;5.28;2.42;;;10.30;99.90;;;;;;4214305;28;20047;-86
2022/12/20 07:25:53;;;;;;;6.03;2.47;;;10.30;99.90;;;;;;4215596;28;20051;-86
2022/12/20 07:27:54;;;;;;;6.32;2.85;;;10.30;99.90;;;;;;4215576;28;20044;-85
2022/12/20 07:29:55;;;;;;;3.95;3.03;;;10.30;99.90;;;;;;4201263;28;20059;-85
2022/12/20 07:31:56;;;;;;;3.90;2.35;;;10.20;99.90;;;;;;4182958;28;20081;-84
2022/12/20 07:33:56;;;;;;;5.32;2.88;;;10.20;99.90;;;;;;4197629;28;20458;-85
2022/12/20 07:36:06;;;;;;;5.70;2.72;;;10.20;99.90;;;;;;4197822;28;20062;-85
2022/12/20 07:38:06;;;;;;;;;;;10.20;99.90;;;;;;4198856;28;20049;-85
2022/12/20 07:40:08;;;;;;;4.60;3.28;;;10.20;99.90;;;;;;4198567;28;20384;-85
2022/12/20 07:42:09;;;;;;;6.75;3.22;;;10.20;99.90;;;;;;4198876;28;20120;-86
2022/12/20 07:44:10;;;;;;;7.90;3.20;;;10.20;99.90;;;;;;4198053;28;20052;-85
2022/12/20 07:46:13;;;;;;;5.13;2.85;;;10.20;99.90;;;;;;4201561;28;20044;-85
2022/12/20 07:48:14;;;;;;;8.25;3.65;;;10.20;99.90;;;;;;4198624;28;20048;-84
2022/12/20 07:50:15;;;;;;;6.40;3.20;;;10.20;99.90;;;;;;4198121;28;20532;-85
2022/12/20 07:52:20;;;;;;;7.35;3.20;;;10.20;99.90;;;;;;4197549;28;20048;-85
2022/12/20 07:54:26;;;;;;;6.88;3.28;;;10.20;99.90;;;;;;4196859;28;20385;-86
2022/12/20 07:56:29;;;;;;;5.40;3.38;;;10.20;99.90;;;;;;4198441;28;20476;-85
2022/12/20 07:58:33;;;;;;;8.00;3.10;;;10.20;99.90;;;;;;4181137;28;20053;-84
2022/12/20 08:00:35;;;;;;;7.05;3.58;;;10.20;99.90;;;;;;4200822;28;20051;-86
2022/12/20 08:02:47;;;;;;;6.13;3.28;;;10.20;99.90;;;;;;4196897;28;20066;-85
2022/12/20 08:04:49;;;;;;;4.85;3.17;;;10.20;99.90;;;;;;4215386;28;20074;-85
2022/12/20 08:06:53;;;;;;;5.65;3.22;;;10.20;99.90;;;;;;4216152;28;20048;-86
2022/12/20 08:08:57;;;;;;;5.13;3.60;;;10.20;99.90;;;;;;4216523;28;20052;-85
2022/12/20 08:10:59;;;;;;;5.15;3.05;;;10.30;99.90;;;;;;4213703;28;20079;-86
2022/12/20 08:13:00;;;;;;;6.93;3.30;;;10.30;99.90;;;;;;4213978;28;20059;-85
2022/12/20 08:15:01;;;;;;;6.68;3.50;;;10.30;99.90;;;;;;4216192;28;20060;-86
2022/12/20 08:17:02;;;;;;;6.88;3.50;;;10.30;99.90;;;;;;4197138;28;20059;-85
2022/12/20 08:19:03;;;;;;;5.28;3.20;;;10.30;99.90;;;;;;4215855;28;20050;-85
2022/12/20 08:21:04;;;;;;;7.45;3.40;;;10.30;99.90;;;;;;4197575;28;20044;-85
2022/12/20 08:23:05;;;;;;;5.03;3.22;;;10.30;99.90;;;;;;4215869;28;20043;-84
2022/12/20 08:25:06;;;;;;;4.65;2.90;;;10.30;99.90;;;;;;4197443;28;20041;-85
2022/12/20 08:27:08;;;;;;;5.65;3.45;;;10.30;99.90;;;;;;4214423;28;20082;-85
2022/12/20 08:29:09;;;;;;;5.72;3.13;;;10.40;99.90;;;;;;4214457;28;20439;-85
2022/12/20 08:31:11;;;;;;;6.13;2.90;;;10.40;99.90;;;;;;4215096;28;20534;-85
2022/12/20 08:33:12;;;;;;;5.30;2.67;;;10.40;99.90;;;;;;4197734;28;20075;-85
2022/12/20 08:35:12;;;;;;;7.38;3.22;;;10.40;99.90;;;;;;4211020;28;20492;-85
2022/12/20 08:37:16;;;;;;;12.38;3.42;;;10.40;99.90;;;;;;4198824;28;20048;-85
2022/12/20 08:39:17;;;;;;;5.68;3.22;;;10.50;99.90;;;;;;4198350;28;20489;-85
2022/12/20 08:41:17;;;;;;;5.60;2.85;;;10.50;99.90;;;;;;4188772;28;20041;-85
2022/12/20 08:43:18;;;;;;;6.88;2.92;;;10.50;99.90;;;;;;4215287;28;20048;-85
2022/12/20 08:45:19;;;;;;;5.30;2.25;;;10.50;99.90;;;;;;4197833;28;20421;-85
2022/12/20 08:47:20;;;;;;;3.95;2.05;;;10.50;99.90;;;;;;4214730;28;20056;-85
2022/12/20 08:49:20;;;;;;;4.60;2.60;;;10.50;99.90;;;;;;4215287;28;20123;-86
2022/12/20 08:51:21;;;;;;;3.95;2.00;;;10.50;99.90;;;;;;4215240;28;20036;-86
2022/12/20 08:53:22;;;;;;;5.20;2.67;;;9.90;99.90;;;;;;4196500;28;20052;-85
2022/12/20 08:55:24;;;;;;;6.57;2.17;;;10.60;99.90;;;;;;4214012;28;20128;-86
2022/12/20 08:57:25;;;;;;;4.13;2.58;;;10.60;99.90;;;;;;4213551;28;20531;-86
2022/12/20 08:59:25;;;;;;;4.20;2.45;;;10.60;99.90;;;;;;4196721;28;20052;-86
2022/12/20 09:01:28;;;;;;;4.75;2.33;;;10.60;99.90;;;;;;4215376;28;20040;-86
2022/12/20 09:03:32;;;;;;;3.80;2.22;;;10.60;99.90;;;;;;4213133;28;20292;-85
2022/12/20 09:05:33;;;;;;;4.75;2.17;;;10.60;99.90;;;;;;4197347;28;20049;-86
2022/12/20 09:07:34;;;;;;;4.50;2.50;;;10.60;99.90;;;;;;4212742;28;20059;-86
2022/12/20 09:09:34;;;;;;;3.28;1.83;;;10.60;99.90;;;;;;4210999;28;20040;-86
2022/12/20 09:11:35;;;;;;;3.17;2.03;;;10.60;99.90;;;;;;4194165;28;20052;-85
2022/12/20 09:13:36;;;;;;;3.85;2.10;;;10.60;99.90;;;;;;4210296;28;20052;-85
2022/12/20 09:15:37;;;;;;;3.65;2.08;;;10.60;99.90;;;;;;4201717;28;20125;-85
2022/12/20 09:17:38;;;;;;;5.55;1.88;;;10.70;99.90;;;;;;4201287;28;20120;-86
2022/12/20 09:19:38;;;;;;;4.68;2.00;;;10.70;99.90;;;;;;4198951;28;20040;-85
2022/12/20 09:21:39;;;;;;;3.35;1.80;;;10.70;99.90;;;;;;4200477;28;20055;-86
2022/12/20 09:23:41;;;;;;;5.10;2.10;;;10.80;99.90;;;;;;4198205;28;20152;-86
2022/12/20 09:25:41;;;;;;;5.38;1.92;;;10.80;99.90;;;;;;4197782;28;20048;-85
2022/12/20 09:27:42;;;;;;;5.63;2.47;;;10.80;99.90;;;;;;4198709;28;20044;-85
2022/12/20 09:29:43;;;;;;;4.45;1.65;;;10.80;99.90;;;;;;4197660;28;20048;-85
2022/12/20 09:31:44;;;;;;;3.38;1.75;;;10.80;99.90;;;;;;4209178;28;20136;-88
2022/12/20 09:33:47;;;;;;;5.28;2.28;;;10.80;99.90;;;;;;4197323;28;20049;-85
2022/12/20 09:35:48;;;;;;;3.33;1.95;;;10.80;99.90;;;;;;4185349;28;20124;-86
2022/12/20 09:37:49;;;;;;;4.25;1.55;;;10.80;99.90;;;;;;4203407;28;20048;-85
2022/12/20 09:39:50;;;;;;;4.28;2.10;;;10.80;99.90;;;;;;4194624;28;20052;-86
2022/12/20 09:41:51;;;;;;;4.70;2.00;;;10.80;99.90;;;;;;4202092;28;20044;-86
2022/12/20 09:43:52;;;;;;;3.63;1.73;;;10.80;99.90;;;;;;4213271;28;20055;-85
2022/12/20 09:46:01;;;;;;;2.70;1.60;;;10.90;99.90;;;;;;4202214;28;20036;-85
2022/12/20 09:48:04;;;;;;;3.58;2.13;;;10.90;99.90;;;;;;4211149;28;20032;-84
2022/12/20 09:50:06;;;;;;;4.60;1.80;;;10.90;99.90;;;;;;4202740;28;20093;-85
2022/12/20 09:52:40;;;;;;;4.10;1.85;;;11.00;99.90;;;;;;4215836;28;20047;-85
2022/12/20 09:54:42;;;;;;;4.10;1.60;;;11.00;99.90;;;;;;4205029;28;20428;-85
2022/12/20 09:57:14;;;;;;;6.95;1.73;;;11.00;99.90;;;;;;4185839;28;20056;-85
2022/12/20 09:59:19;;;;;;;3.60;1.77;;;11.10;99.90;;;;;;4211876;28;20110;-86
2022/12/20 10:01:22;;;;;;;4.53;1.85;;;11.20;99.90;;;;;;4189993;28;20048;-86
2022/12/20 10:03:30;;;;;;;2.78;1.77;;;11.20;99.90;;;;;;4204168;28;20051;-86
2022/12/20 10:05:49;;;;;;;4.78;1.40;;;11.20;99.90;;;;;;4211022;28;20044;-86
2022/12/20 10:08:00;;;;;;;4.75;1.80;;;11.20;99.90;;;;;;4211767;28;20047;-86
2022/12/20 10:10:22;;;;;;;2.28;1.50;;;11.20;99.90;;;;;;4202699;28;20119;-87
2022/12/20 10:12:35;;;;;;;4.22;1.65;;;11.20;99.90;;;;;;4220976;28;20044;-86
2022/12/20 10:15:00;;;;;;;3.08;1.38;;;11.20;99.90;;;;;;4216699;28;20056;-86
2022/12/20 10:17:12;;;;;;;3.92;1.45;;;11.20;99.90;;;;;;4209261;28;20049;-85
2022/12/20 10:19:45;;;;;;;6.10;1.80;;;11.20;99.90;;;;;;4199361;28;20104;-85
2022/12/20 10:22:03;;;;;;;5.68;1.90;;;11.10;99.90;;;;;;4216784;28;20084;-84
2022/12/20 10:24:17;;;;;;;3.28;1.48;;;11.20;99.90;;;;;;4198710;28;20048;-85
2022/12/20 10:26:17;;;;;;;5.72;1.50;;;11.10;99.90;;;;;;4203112;28;20161;-86
2022/12/20 10:28:22;;;;;;;2.45;1.52;;;11.10;99.90;;;;;;4184750;28;20045;-86
2022/12/20 10:30:26;;;;;;;3.47;1.77;;;11.10;99.90;;;;;;4201996;28;20063;-86
2022/12/20 10:32:28;;;;;;;5.25;1.67;;;11.10;99.90;;;;;;4201679;28;20091;-85
2022/12/20 10:34:29;;;;;;;2.65;1.70;;;11.10;99.90;;;;;;4195318;28;20405;-86
2022/12/20 10:36:35;;;;;;;5.57;1.73;;;11.10;99.90;;;;;;4212634;28;20055;-84
2022/12/20 10:38:44;;;;;;;3.85;1.50;;;11.10;99.90;;;;;;4204503;28;20109;-86
2022/12/20 10:41:00;;;;;;;5.50;2.00;;;11.10;99.90;;;;;;4192898;28;20052;-86
2022/12/20 10:43:05;;;;;;;3.58;1.60;;;11.10;99.90;;;;;;4212735;28;20063;-86
2022/12/20 10:45:15;;;;;;;4.03;2.33;;;11.10;99.90;;;;;;4209180;28;20044;-86
2022/12/20 10:47:36;;;;;;;7.00;2.22;;;11.10;99.90;;;;;;4207331;28;20047;-85
2022/12/20 10:49:39;;;;;;;3.50;1.58;;;11.10;99.90;;;;;;4212840;28;20059;-84
2022/12/20 10:51:54;;;;;;;4.75;1.95;;;11.10;99.90;;;;;;4204489;28;20440;-85
2022/12/20 10:54:18;;;;;;;3.45;1.50;;;11.10;99.90;;;;;;4203744;28;20048;-85